Time;durP1;ratioP1;P1;durP2;ratioP2;P2;SDS_P1;SDS_P2;PMS_P1;PMS_P2;Temp;Humidity;BMP_temperature;BMP_pressure;BME280_temperature;BME280_humidity;BME280_pressure;Samples;Min_cycle;Max_cycle;Signal;HPM_P1;HPM_P2
2023/07/01 00:01:25;;;;;;;8.90;3.33;;;;;;;-146.27;87.14;82046.72;5049750;28;20079;-70
2023/07/01 00:03:50;;;;;;;6.22;2.92;;;;;;;-146.27;87.91;82050.75;5050045;28;20064;-69
2023/07/01 00:06:16;;;;;;;4.85;2.97;;;;;;;-146.27;88.53;82010.56;5047798;28;20029;-71
2023/07/01 00:08:41;;;;;;;6.28;3.20;;;;;;;-146.27;89.32;81958.34;5049796;28;20097;-71
2023/07/01 00:11:07;;;;;;;19.98;4.70;;;;;;;-146.27;89.45;82062.78;5041613;28;20112;-71
2023/07/01 00:13:33;;;;;;;6.60;3.95;;;;;;;-146.27;90.44;82078.84;5049394;28;20052;-71
2023/07/01 00:15:59;;;;;;;7.25;3.97;;;;;;;-146.27;92.15;82143.13;5048141;28;20057;-70
2023/07/01 00:18:26;;;;;;;3.85;3.38;;;;;;;-146.27;93.19;82133.09;5045787;28;20051;-72
2023/07/01 00:20:52;;;;;;;8.45;4.00;;;;;;;-146.27;94.00;82149.16;5049064;28;20107;-71
2023/07/01 00:23:17;;;;;;;8.73;3.58;;;;;;;-146.27;94.35;82177.28;5050141;28;20078;-72
2023/07/01 00:25:42;;;;;;;7.28;4.05;;;;;;;-146.27;94.43;82143.13;5049339;28;20036;-71
2023/07/01 00:28:08;;;;;;;9.10;4.18;;;;;;;-146.27;94.24;82155.19;5049941;28;20021;-70
2023/07/01 00:30:33;;;;;;;12.35;4.22;;;;;;;-146.27;94.83;82159.22;5048360;28;20021;-71
2023/07/01 00:33:00;;;;;;;13.85;5.05;;;;;;;-146.27;95.29;82175.28;5047898;28;20024;-71
2023/07/01 00:35:26;;;;;;;12.60;4.10;;;;;;;-146.27;94.91;82155.19;5031379;28;20025;-72
2023/07/01 00:37:51;;;;;;;9.43;4.30;;;;;;;-146.27;94.98;82189.34;5049887;28;20033;-72
2023/07/01 00:40:17;;;;;;;11.52;4.25;;;;;;;-146.27;95.05;82209.44;5050000;28;20459;-71
2023/07/01 00:42:43;;;;;;;15.45;4.35;;;;;;;-146.27;94.23;82191.34;5048510;28;20047;-70
2023/07/01 00:45:08;;;;;;;12.05;4.13;;;;;;;-146.27;94.35;82205.41;5047589;28;20052;-71
2023/07/01 00:47:34;;;;;;;7.75;3.92;;;;;;;-146.27;93.79;82141.13;5048214;28;20448;-71
2023/07/01 00:49:59;;;;;;;7.50;4.00;;;;;;;-146.27;94.32;82193.34;5049462;28;20021;-72
2023/07/01 00:52:25;;;;;;;8.07;4.00;;;;;;;-146.27;94.32;82175.28;5049697;28;20153;-71
2023/07/01 00:54:51;;;;;;;8.40;4.07;;;;;;;-146.27;95.90;82255.63;5048066;28;20159;-71
2023/07/01 00:57:16;;;;;;;9.43;4.50;;;;;;;-146.27;96.14;82231.53;5049676;28;20057;-72
2023/07/01 00:59:41;;;;;;;8.98;4.80;;;;;;;-146.27;95.54;82177.28;5049662;28;20037;-70
2023/07/01 01:02:19;;;;;;;18.95;4.70;;;;;;;-146.27;95.42;82155.19;5049010;28;20087;-70
2023/07/01 01:05:01;;;;;;;8.48;4.95;;;;;;;-146.27;95.97;82203.41;5041147;28;20028;-72
2023/07/01 01:07:33;;;;;;;9.70;5.25;;;;;;;-146.27;96.10;82191.34;5043837;28;20055;-71
2023/07/01 01:10:13;;;;;;;7.63;5.50;;;;;;;-146.27;95.50;82185.31;5029361;28;20116;-70
2023/07/01 01:12:42;;;;;;;12.13;5.90;;;;;;;-146.27;95.41;82175.28;5047046;28;20064;-70
2023/07/01 01:15:08;;;;;;;12.98;6.05;;;;;;;-146.27;95.90;82221.47;5047763;28;20025;-72
2023/07/01 01:17:38;;;;;;;10.15;5.38;;;;;;;-146.27;95.95;82199.38;5046813;28;20068;-72
2023/07/01 01:20:12;;;;;;;17.70;6.05;;;;;;;-146.27;95.30;82205.41;5031146;28;20017;-72
2023/07/01 01:23:01;;;;;;;8.07;5.53;;;;;;;-146.27;94.84;82145.16;5048559;28;20052;-71
2023/07/01 01:25:46;;;;;;;11.55;6.53;;;;;;;-146.27;95.54;82179.28;5048764;28;20056;-72
2023/07/01 01:28:11;;;;;;;8.23;6.05;;;;;;;-146.27;95.08;82151.16;5048385;28;20029;-71
2023/07/01 01:30:37;;;;;;;14.15;6.00;;;;;;;-146.27;95.47;82163.22;5032588;28;20017;-70
2023/07/01 01:33:03;;;;;;;9.10;6.72;;;;;;;-146.27;95.06;82088.91;5048212;28;20029;-70
2023/07/01 01:35:29;;;;;;;11.18;6.75;;;;;;;-146.27;95.02;82215.44;5030099;28;20143;-70
2023/07/01 01:38:00;;;;;;;13.25;6.95;;;;;;;-146.27;95.88;82167.25;5048314;28;20025;-71
2023/07/01 01:40:33;;;;;;;10.90;6.38;;;;;;;-146.27;95.88;82163.22;5048286;28;20029;-71
2023/07/01 01:43:13;;;;;;;10.48;6.40;;;;;;;-146.27;96.25;82145.16;5048429;28;20078;-71
2023/07/01 01:45:38;;;;;;;12.32;6.85;;;;;;;-146.27;96.06;82173.28;5047681;28;20485;-72
2023/07/01 01:48:05;;;;;;;10.82;5.95;;;;;;;-146.27;95.75;82119.03;5047896;28;20025;-71
2023/07/01 01:50:32;;;;;;;8.73;6.13;;;;;;;-146.27;95.69;82195.38;5048852;28;20093;-71
2023/07/01 01:53:01;;;;;;;9.57;6.25;;;;;;;-146.27;95.66;82159.22;5048858;28;20496;-72
2023/07/01 01:55:29;;;;;;;8.27;6.88;;;;;;;-146.27;95.99;82163.22;5048167;28;20074;-71
2023/07/01 01:57:55;;;;;;;12.25;6.47;;;;;;;-146.27;95.91;82177.28;5047982;28;20384;-71
2023/07/01 02:00:20;;;;;;;8.18;5.80;;;;;;;-146.27;95.38;82147.16;5045205;28;20068;-72
2023/07/01 02:02:46;;;;;;;11.07;7.10;;;;;;;-146.27;95.53;82175.28;5047578;28;20025;-71
2023/07/01 02:05:11;;;;;;;9.05;6.55;;;;;;;-146.27;96.47;82163.22;5048973;28;20112;-72
2023/07/01 02:07:37;;;;;;;8.55;6.07;;;;;;;-146.27;95.82;82109.00;5044985;28;20377;-71
2023/07/01 02:10:04;;;;;;;9.15;6.38;;;;;;;-146.27;95.67;82111.00;5048240;28;20107;-71
2023/07/01 02:12:30;;;;;;;8.35;6.68;;;;;;;-146.27;95.81;82094.94;5045935;28;20459;-71
2023/07/01 02:14:55;;;;;;;13.27;7.13;;;;;;;-146.27;96.62;82139.13;5046774;28;20100;-71
2023/07/01 02:17:20;;;;;;;14.18;8.65;;;;;;;-146.27;97.55;82159.22;5030276;28;20397;-71
2023/07/01 02:19:46;;;;;;;24.23;8.90;;;;;;;-146.27;97.92;82135.09;5049624;28;20071;-70
2023/07/01 02:22:11;;;;;;;9.88;7.90;;;;;;;-146.27;98.17;82133.09;5049272;28;20116;-72
2023/07/01 02:24:36;;;;;;;11.68;8.20;;;;;;;-146.27;98.66;82179.28;5049198;28;20033;-72
2023/07/01 02:27:02;;;;;;;13.15;9.15;;;;;;;-146.27;98.49;82123.06;5048442;28;20025;-71
2023/07/01 02:29:28;;;;;;;14.95;8.93;;;;;;;-146.27;99.10;82195.38;5047654;28;20694;-71
2023/07/01 02:31:53;;;;;;;11.63;9.02;;;;;;;-146.27;99.72;82175.28;5047307;28;20029;-71
2023/07/01 02:34:27;;;;;;;9.70;8.80;;;;;;;-146.27;99.54;82167.25;5047559;28;20017;-71
2023/07/01 02:36:55;;;;;;;11.23;7.65;;;;;;;-146.27;99.81;82153.19;5048616;28;20381;-71
2023/07/01 02:39:21;;;;;;;10.95;9.07;;;;;;;-146.27;99.76;82163.22;5048907;28;20100;-71
2023/07/01 02:41:47;;;;;;;9.70;8.57;;;;;;;-146.27;100.00;82183.31;5046344;28;20100;-70
2023/07/01 02:44:12;;;;;;;12.90;8.43;;;;;;;-146.27;100.00;82227.50;5046495;28;20048;-71
2023/07/01 02:46:38;;;;;;;11.60;8.15;;;;;;;-146.27;100.00;82231.53;5047334;28;20476;-71
2023/07/01 02:49:04;;;;;;;10.05;8.20;;;;;;;-146.27;100.00;82189.34;5030865;28;20033;-71
2023/07/01 02:51:29;;;;;;;11.75;8.48;;;;;;;-146.27;100.00;82175.28;5048070;28;20029;-70
2023/07/01 02:53:55;;;;;;;10.70;8.55;;;;;;;-146.27;100.00;82201.38;5049655;28;20025;-71
2023/07/01 02:56:20;;;;;;;12.25;8.10;;;;;;;-146.27;100.00;82187.31;5051581;28;20060;-70
2023/07/01 02:58:45;;;;;;;10.85;8.10;;;;;;;-146.27;100.00;82251.59;5049820;28;20134;-71
2023/07/01 03:01:12;;;;;;;11.57;8.48;;;;;;;-146.27;100.00;82239.56;5050599;28;20029;-72
2023/07/01 03:03:37;;;;;;;11.13;8.50;;;;;;;-146.27;100.00;82187.31;5050360;28;20310;-71
2023/07/01 03:06:03;;;;;;;9.23;7.57;;;;;;;-146.27;100.00;82225.50;5052792;28;20518;-71
2023/07/01 03:08:28;;;;;;;12.60;7.03;;;;;;;-146.27;100.00;82221.47;5050219;28;20017;-71
2023/07/01 03:10:53;;;;;;;11.05;7.88;;;;;;;-146.27;100.00;82235.53;5048503;28;20052;-71
2023/07/01 03:13:19;;;;;;;11.93;7.05;;;;;;;-146.27;100.00;82253.63;5051126;28;20020;-71
2023/07/01 03:15:45;;;;;;;16.20;8.82;;;;;;;-146.27;100.00;82235.53;5050304;28;20029;-71
2023/07/01 03:18:10;;;;;;;11.05;8.60;;;;;;;-146.27;100.00;82215.44;5048035;28;20021;-71
2023/07/01 03:20:35;;;;;;;12.20;9.82;;;;;;;-146.27;100.00;82207.41;5047063;28;20515;-71
2023/07/01 03:23:01;;;;;;;10.98;8.32;;;;;;;-146.27;100.00;82259.66;5052466;28;20032;-71
2023/07/01 03:25:27;;;;;;;12.65;9.18;;;;;;;-146.27;100.00;82185.31;5051009;28;20534;-71
2023/07/01 03:27:53;;;;;;;10.80;8.50;;;;;;;-146.27;100.00;82227.50;5041897;28;20504;-71
2023/07/01 03:30:21;;;;;;;10.85;9.15;;;;;;;-146.27;100.00;82211.44;5046878;28;20021;-71
2023/07/01 03:32:48;;;;;;;10.90;9.18;;;;;;;-146.27;100.00;82219.47;5050679;28;20159;-70
2023/07/01 03:35:15;;;;;;;13.93;9.70;;;;;;;-146.27;100.00;82231.53;5049695;28;20029;-71
2023/07/01 03:37:43;;;;;;;11.18;9.95;;;;;;;-146.27;100.00;82231.53;5050854;28;20029;-71
2023/07/01 03:40:10;;;;;;;11.35;9.65;;;;;;;-146.27;100.00;82195.38;5051089;28;20040;-71
2023/07/01 03:42:39;;;;;;;11.52;10.23;;;;;;;-146.27;100.00;82215.44;5033936;28;20504;-70
2023/07/01 03:45:07;;;;;;;12.70;9.48;;;;;;;-146.27;100.00;82217.47;5032188;28;20119;-70
2023/07/01 03:47:34;;;;;;;11.45;9.07;;;;;;;-146.27;100.00;82183.31;5050372;28;20032;-70
2023/07/01 03:49:59;;;;;;;11.55;9.02;;;;;;;-146.27;100.00;82221.47;5062967;28;20021;-72
2023/07/01 03:52:25;;;;;;;9.75;7.78;;;;;;;-146.27;100.00;82235.53;5050059;28;20039;-72
2023/07/01 03:54:50;;;;;;;11.35;8.32;;;;;;;-146.27;100.00;82203.41;5051131;28;20476;-72
2023/07/01 03:57:16;;;;;;;10.75;8.30;;;;;;;-146.27;100.00;82201.38;5049492;28;20420;-71
2023/07/01 03:59:41;;;;;;;10.30;8.77;;;;;;;-146.27;100.00;82191.34;5050615;28;20114;-71
2023/07/01 04:02:06;;;;;;;10.15;8.68;;;;;;;-146.27;100.00;82267.69;5049290;28;20025;-71
2023/07/01 04:04:32;;;;;;;11.70;8.73;;;;;;;-146.27;100.00;82203.41;5049281;28;20033;-71
2023/07/01 04:06:57;;;;;;;10.90;8.52;;;;;;;-146.27;100.00;82195.38;5050488;28;20029;-72
2023/07/01 04:09:23;;;;;;;12.63;9.27;;;;;;;-146.27;100.00;82175.28;5050244;28;20098;-70
2023/07/01 04:11:48;;;;;;;12.02;8.27;;;;;;;-146.27;100.00;82201.38;5048883;28;20445;-71
2023/07/01 04:14:15;;;;;;;11.80;9.40;;;;;;;-146.27;100.00;82143.13;5047956;28;20048;-71
2023/07/01 04:16:44;;;;;;;9.77;8.40;;;;;;;-146.27;100.00;82171.25;5046944;28;20484;-72
2023/07/01 04:19:10;;;;;;;9.98;8.90;;;;;;;-146.27;100.00;82197.38;5047385;28;20021;-71
2023/07/01 04:21:35;;;;;;;10.75;8.10;;;;;;;-146.27;100.00;82159.22;5048094;28;20388;-72
2023/07/01 04:24:04;;;;;;;12.35;8.50;;;;;;;-146.27;100.00;82205.41;5048937;28;20033;-71
2023/07/01 04:26:30;;;;;;;12.73;8.27;;;;;;;-146.27;100.00;82197.38;5050160;28;20042;-71
2023/07/01 04:28:55;;;;;;;9.60;8.43;;;;;;;-146.27;100.00;82193.34;5049065;28;20107;-72
2023/07/01 04:31:21;;;;;;;11.38;7.65;;;;;;;-146.27;100.00;82219.47;5046786;28;20072;-71
2023/07/01 04:33:46;;;;;;;8.38;7.20;;;;;;;-146.27;100.00;82209.44;5050061;28;20032;-71
2023/07/01 04:36:12;;;;;;;13.02;8.75;;;;;;;-146.27;100.00;82227.50;5050824;28;20021;-71
2023/07/01 04:38:37;;;;;;;9.25;7.43;;;;;;;-146.27;100.00;82203.41;5048780;28;20452;-71
2023/07/01 04:41:03;;;;;;;9.95;8.00;;;;;;;-146.27;100.00;82195.38;5050434;28;20841;-72
2023/07/01 04:43:29;;;;;;;9.68;7.93;;;;;;;-146.27;100.00;82175.28;5048778;28;20096;-71
2023/07/01 04:45:54;;;;;;;10.75;8.35;;;;;;;-146.27;100.00;82119.03;5048866;28;20079;-71
2023/07/01 04:48:20;;;;;;;10.73;8.13;;;;;;;-146.27;100.00;82187.31;5030941;28;20028;-72
2023/07/01 04:50:45;;;;;;;11.57;8.93;;;;;;;-146.27;100.00;82143.13;5048190;28;20603;-72
2023/07/01 04:53:10;;;;;;;12.68;9.00;;;;;;;-146.27;100.00;82149.16;5050128;28;20025;-71
2023/07/01 04:55:36;;;;;;;14.95;9.73;;;;;;;-146.27;100.00;82183.31;5049836;28;20041;-71
2023/07/01 04:58:01;;;;;;;11.73;8.90;;;;;;;-146.27;100.00;82199.38;5048530;28;20056;-72
2023/07/01 05:00:27;;;;;;;12.15;8.45;;;;;;;-146.27;100.00;82187.31;5043520;28;20171;-72
2023/07/01 05:02:53;;;;;;;12.32;8.88;;;;;;;-146.27;100.00;82219.47;5044130;28;20040;-71
2023/07/01 05:05:18;;;;;;;11.93;9.07;;;;;;;-146.27;100.00;82203.41;5049580;28;20040;-71
2023/07/01 05:07:43;;;;;;;11.73;8.50;;;;;;;-146.27;100.00;82189.34;5032608;28;20064;-71
2023/07/01 05:10:09;;;;;;;11.23;8.77;;;;;;;-146.27;100.00;82191.34;5048651;28;20032;-71
2023/07/01 05:12:34;;;;;;;12.10;8.20;;;;;;;-146.27;100.00;82167.25;5047893;28;20381;-71
2023/07/01 05:15:00;;;;;;;12.32;8.20;;;;;;;-146.27;100.00;82203.41;5045913;28;20496;-72
2023/07/01 05:17:25;;;;;;;10.85;7.90;;;;;;;-146.27;100.00;82183.31;5047341;28;20427;-72
2023/07/01 05:19:51;;;;;;;10.98;8.52;;;;;;;-146.27;100.00;82179.28;5047269;28;20265;-72
2023/07/01 05:22:16;;;;;;;11.57;8.38;;;;;;;-146.27;100.00;82157.19;5045548;28;20028;-72
2023/07/01 05:24:41;;;;;;;11.63;8.82;;;;;;;-146.27;100.00;82173.28;5047090;28;20027;-71
2023/07/01 05:27:07;;;;;;;11.80;8.88;;;;;;;-146.27;100.00;82115.00;5047812;28;20028;-72
2023/07/01 05:29:32;;;;;;;9.85;8.50;;;;;;;-146.27;100.00;82197.38;5047894;28;20036;-71
2023/07/01 05:31:57;;;;;;;11.25;8.18;;;;;;;-146.27;100.00;82197.38;5048233;28;20024;-71
2023/07/01 05:34:23;;;;;;;10.93;9.02;;;;;;;-146.27;100.00;82149.16;5044984;28;20029;-71
2023/07/01 05:36:49;;;;;;;11.07;8.18;;;;;;;-146.27;100.00;82205.41;5046967;28;20037;-71
2023/07/01 05:39:15;;;;;;;9.80;8.27;;;;;;;-146.27;100.00;82205.41;5049763;28;20021;-71
2023/07/01 05:41:41;;;;;;;11.10;8.73;;;;;;;-146.27;100.00;82199.38;5047803;28;20031;-71
2023/07/01 05:44:07;;;;;;;11.00;8.25;;;;;;;-146.27;100.00;82157.19;5042818;28;20035;-71
2023/07/01 05:46:32;;;;;;;12.23;7.75;;;;;;;-146.27;100.00;82173.28;5049468;28;20480;-71
2023/07/01 05:48:58;;;;;;;9.65;7.28;;;;;;;-146.27;100.00;82143.13;5042375;28;20032;-72
2023/07/01 05:51:23;;;;;;;10.70;7.32;;;;;;;-146.27;100.00;82161.22;5040552;28;20024;-70
2023/07/01 05:53:49;;;;;;;9.50;7.22;;;;;;;-146.27;100.00;82203.41;5046412;28;20032;-71
2023/07/01 05:56:17;;;;;;;11.10;7.90;;;;;;;-146.27;100.00;82117.03;5047792;28;20021;-70
2023/07/01 05:58:43;;;;;;;11.55;8.00;;;;;;;-146.27;100.00;82117.03;5028196;28;20846;-70
2023/07/01 06:01:08;;;;;;;9.90;7.50;;;;;;;-146.27;100.00;82111.00;5047505;28;20043;-70
2023/07/01 06:03:34;;;;;;;9.02;7.00;;;;;;;-146.27;100.00;82159.22;5045764;28;20028;-71
2023/07/01 06:05:59;;;;;;;12.15;7.80;;;;;;;-146.27;100.00;82157.19;5043198;28;20040;-71
2023/07/01 06:08:24;;;;;;;11.98;7.93;;;;;;;-146.27;100.00;82199.38;5047360;28;20489;-71
2023/07/01 06:10:50;;;;;;;10.70;7.72;;;;;;;-146.27;100.00;82127.06;5040683;28;20104;-71
2023/07/01 06:13:15;;;;;;;11.35;7.88;;;;;;;-146.27;100.00;82143.13;5048781;28;20105;-72
2023/07/01 06:15:41;;;;;;;10.93;8.48;;;;;;;-146.27;100.00;82131.09;5040109;28;20131;-72
2023/07/01 06:18:06;;;;;;;11.48;7.82;;;;;;;-146.27;100.00;82074.84;5042329;28;20112;-71
2023/07/01 06:20:31;;;;;;;10.57;7.68;;;;;;;-146.27;100.00;82119.03;5040152;28;20502;-72
2023/07/01 06:22:57;;;;;;;12.10;8.10;;;;;;;-146.27;100.00;82123.06;5045477;28;20035;-72
2023/07/01 06:25:22;;;;;;;12.23;8.93;;;;;;;-146.27;100.00;82052.75;5048280;28;20078;-72
2023/07/01 06:27:48;;;;;;;11.77;8.23;;;;;;;-146.27;100.00;82119.03;5042511;28;20064;-71
2023/07/01 06:30:13;;;;;;;11.65;8.38;;;;;;;-146.27;100.00;82062.78;5051573;28;20025;-71
2023/07/01 06:32:38;;;;;;;14.23;9.48;;;;;;;-146.27;100.00;82125.06;5050348;28;20362;-71
2023/07/01 06:35:04;;;;;;;13.80;9.68;;;;;;;-146.27;100.00;82076.84;5049756;28;20033;-71
2023/07/01 06:37:29;;;;;;;14.77;10.55;;;;;;;-146.27;100.00;82082.88;5045166;28;20040;-72
2023/07/01 06:39:55;;;;;;;15.20;9.98;;;;;;;-146.27;100.00;82070.81;5034813;28;20327;-71
2023/07/01 06:42:20;;;;;;;12.77;9.32;;;;;;;-146.27;100.00;82086.91;5050866;28;20066;-72
2023/07/01 06:44:45;;;;;;;14.70;9.63;;;;;;;-146.27;100.00;82042.69;5047555;28;20407;-68
2023/07/01 06:47:11;;;;;;;13.75;9.90;;;;;;;-146.27;100.00;82024.63;5047683;28;20059;-70
2023/07/01 06:49:36;;;;;;;13.55;9.80;;;;;;;-146.27;100.00;82054.75;5047918;28;20075;-69
2023/07/01 06:52:02;;;;;;;12.40;9.82;;;;;;;-146.27;100.00;82046.72;5045166;28;20108;-71
2023/07/01 06:54:27;;;;;;;13.25;9.38;;;;;;;-146.27;100.00;82034.66;5046643;28;20045;-70
2023/07/01 06:56:53;;;;;;;11.65;8.25;;;;;;;-146.27;100.00;82022.63;5033015;28;20120;-70
2023/07/01 06:59:18;;;;;;;12.15;8.45;;;;;;;-146.27;100.00;82010.56;5051425;28;20086;-71
2023/07/01 07:01:43;;;;;;;13.18;9.20;;;;;;;-146.27;100.00;82066.81;5042599;28;20387;-70
2023/07/01 07:04:09;;;;;;;11.48;8.18;;;;;;;-146.27;100.00;82058.78;5049023;28;20032;-70
2023/07/01 07:06:34;;;;;;;11.98;9.02;;;;;;;-146.27;100.00;82036.69;5042654;28;20052;-70
2023/07/01 07:08:59;;;;;;;13.77;9.13;;;;;;;-146.27;100.00;82028.66;5041626;28;20436;-70
2023/07/01 07:11:25;;;;;;;11.68;9.07;;;;;;;-146.27;100.00;82008.56;5045175;28;20061;-71
2023/07/01 07:13:50;;;;;;;11.88;9.02;;;;;;;-146.27;100.00;81972.41;5042628;28;20108;-71
2023/07/01 07:16:16;;;;;;;12.10;9.00;;;;;;;-146.27;100.00;82034.66;5040580;28;20465;-71
2023/07/01 07:18:41;;;;;;;14.43;10.02;;;;;;;-146.27;100.00;82008.56;5045248;28;20034;-70
2023/07/01 07:21:07;;;;;;;11.45;8.93;;;;;;;-146.27;100.00;82018.59;5039892;28;20096;-70
2023/07/01 07:23:32;;;;;;;11.48;8.27;;;;;;;-146.27;100.00;81978.44;5048108;28;20029;-70
2023/07/01 07:25:58;;;;;;;14.30;9.43;;;;;;;-146.27;100.00;81982.44;5039437;28;20348;-71
2023/07/01 07:28:23;;;;;;;12.38;9.07;;;;;;;-146.27;100.00;82002.53;5036921;28;20029;-70
2023/07/01 07:30:49;;;;;;;12.35;8.50;;;;;;;-146.27;100.00;82014.59;5045687;28;20047;-70
2023/07/01 07:33:14;;;;;;;10.70;8.35;;;;;;;-146.27;100.00;81994.50;5048738;28;20507;-72
2023/07/01 07:35:39;;;;;;;9.85;7.70;;;;;;;-146.27;100.00;81982.44;5047408;28;20017;-70
2023/07/01 07:38:05;;;;;;;9.80;7.95;;;;;;;-146.27;100.00;81978.44;5047322;28;20592;-69
2023/07/01 07:40:30;;;;;;;9.30;7.38;;;;;;;-146.27;100.00;81990.47;5047455;28;20029;-69
2023/07/01 07:42:55;;;;;;;10.20;8.02;;;;;;;-146.27;100.00;81980.44;5048241;28;20504;-71
2023/07/01 07:45:22;;;;;;;10.48;7.93;;;;;;;-146.27;100.00;81974.41;5047778;28;20489;-71
2023/07/01 07:47:47;;;;;;;8.73;7.82;;;;;;;-146.27;100.00;81998.50;5049258;28;20086;-71
2023/07/01 07:50:13;;;;;;;7.45;6.65;;;;;;;-146.27;100.00;81984.47;5049337;28;20033;-71
2023/07/01 07:52:38;;;;;;;10.23;7.47;;;;;;;-146.27;100.00;81910.13;5048917;28;20060;-71
2023/07/01 07:55:04;;;;;;;8.07;6.90;;;;;;;-146.27;100.00;81978.44;5048594;28;20023;-70
2023/07/01 07:57:30;;;;;;;6.80;5.88;;;;;;;-146.27;100.00;81948.31;5048360;28;20033;-72
2023/07/01 07:59:55;;;;;;;6.63;5.93;;;;;;;-146.27;100.00;81962.34;5048156;28;20041;-72
2023/07/01 08:02:21;;;;;;;6.82;6.10;;;;;;;-146.27;100.00;81926.22;5042262;28;20029;-70
2023/07/01 08:04:47;;;;;;;6.57;5.80;;;;;;;-146.27;100.00;81970.41;5031718;28;20401;-71
2023/07/01 08:07:13;;;;;;;6.43;5.80;;;;;;;-146.27;100.00;81988.47;5049044;28;20024;-71
2023/07/01 08:09:39;;;;;;;5.18;4.68;;;;;;;-146.27;100.00;81894.06;5047998;28;20082;-72
2023/07/01 08:12:06;;;;;;;3.90;3.50;;;;;;;-146.27;100.00;81890.06;5043963;28;20026;-71
2023/07/01 08:14:32;;;;;;;3.38;3.00;;;;;;;-146.27;100.00;81894.06;5046566;28;20082;-70
2023/07/01 08:16:59;;;;;;;2.67;2.47;;;;;;;-146.27;100.00;81865.94;5047317;28;20073;-70
2023/07/01 08:19:24;;;;;;;2.40;1.48;;;;;;;-146.27;100.00;81892.06;5048931;28;20111;-71
2023/07/01 08:21:50;;;;;;;2.15;1.95;;;;;;;-146.27;100.00;81894.06;5047429;28;20444;-70
2023/07/01 08:24:15;;;;;;;1.40;1.30;;;;;;;-146.27;100.00;81914.16;5041235;28;20072;-71
2023/07/01 08:26:41;;;;;;;1.10;1.00;;;;;;;-146.27;100.00;81888.03;5042190;28;20029;-71
2023/07/01 08:29:08;;;;;;;1.00;1.00;;;;;;;-146.27;100.00;81904.13;5042015;28;20506;-72
2023/07/01 08:31:34;;;;;;;1.48;1.00;;;;;;;-146.27;100.00;81861.94;5046953;28;20021;-71
2023/07/01 08:33:59;;;;;;;1.10;1.00;;;;;;;-146.27;100.00;81861.94;5044966;28;20365;-71
2023/07/01 08:36:26;;;;;;;1.05;0.95;;;;;;;-146.27;100.00;81886.03;5037712;28;20448;-70
2023/07/01 08:38:52;;;;;;;1.33;1.20;;;;;;;-146.27;100.00;81857.91;5039922;28;20021;-71
2023/07/01 08:41:18;;;;;;;2.15;1.25;;;;;;;-146.27;100.00;81867.97;5048137;28;20501;-71
2023/07/01 08:43:47;;;;;;;5.22;0.82;;;;;;;-146.27;100.00;81873.97;5039781;28;20029;-71
2023/07/01 08:46:15;;;;;;;1.33;0.90;;;;;;;-146.27;100.00;81869.97;5045300;28;21958;-70
2023/07/01 08:48:43;;;;;;;1.10;1.00;;;;;;;-146.27;100.00;81884.03;5044182;28;20081;-71
2023/07/01 08:51:37;;;;;;;1.77;1.58;;;;;;;-146.27;100.00;81884.03;5045535;28;20171;-72
2023/07/01 08:54:04;;;;;;;2.17;1.27;;;;;;;-146.27;100.00;81904.13;5050314;28;20039;-72
2023/07/01 08:56:30;;;;;;;2.22;1.35;;;;;;;-146.27;100.00;81922.19;5048766;28;20070;-73
2023/07/01 08:58:55;;;;;;;4.95;1.70;;;;;;;-146.27;100.00;81869.97;5038352;28;20420;-72
2023/07/01 09:01:21;;;;;;;4.93;1.80;;;;;;;-146.27;100.00;81912.16;5030855;28;20018;-72
2023/07/01 09:03:47;;;;;;;4.15;2.00;;;;;;;-146.27;100.00;81936.25;5042412;28;20404;-72
2023/07/01 09:06:13;;;;;;;3.58;2.00;;;;;;;-146.27;100.00;81886.03;5041173;28;20094;-72
2023/07/01 09:08:39;;;;;;;5.80;2.50;;;;;;;-146.27;100.00;81849.88;5049374;28;20025;-69
2023/07/01 09:11:14;;;;;;;5.80;2.90;;;;;;;-146.27;100.00;81853.91;5105769;27;20391;-71
2023/07/01 09:13:40;;;;;;;6.20;2.20;;;;;;;-146.27;100.00;81869.97;5094641;28;20020;-71
2023/07/01 09:16:06;;;;;;;3.78;2.88;;;;;;;-146.27;100.00;81817.75;5087214;28;20025;-70
2023/07/01 09:18:31;;;;;;;6.80;2.70;;;;;;;-146.27;100.00;81821.75;5092824;28;20028;-71
2023/07/01 09:20:58;;;;;;;4.03;2.60;;;;;;;-146.27;100.00;81861.94;5092037;28;20490;-70
2023/07/01 09:23:29;;;;;;;7.47;2.50;;;;;;;-146.27;100.00;81867.97;5102927;28;20546;-70
2023/07/01 09:26:14;;;;;;;6.30;2.95;;;;;;;-146.27;100.00;81817.75;5101940;28;20027;-72
2023/07/01 09:28:46;;;;;;;6.28;3.65;;;;;;;-146.27;100.00;81795.66;5106087;28;20432;-71
2023/07/01 09:31:14;;;;;;;10.57;4.63;;;;;;;-146.27;100.00;81865.94;5090692;28;20098;-72
2023/07/01 09:33:40;;;;;;;7.97;4.32;;;;;;;-146.27;100.00;81805.69;5086669;28;20296;-72
2023/07/01 09:36:07;;;;;;;11.93;5.15;;;;;;;-146.27;100.00;81825.78;5085792;28;20365;-72
2023/07/01 09:38:34;;;;;;;16.05;5.68;;;;;;;-146.27;100.00;81805.69;5087021;28;20032;-72
2023/07/01 09:41:23;;;;;;;13.20;4.97;;;;;;;-146.27;100.00;81813.72;5086445;28;20158;-72
2023/07/01 09:43:48;;;;;;;9.75;5.68;;;;;;;-146.27;100.00;81902.09;5086330;28;20028;-70
2023/07/01 09:46:14;;;;;;;10.57;5.72;;;;;;;-146.27;100.00;81914.16;5091051;28;20510;-70
2023/07/01 09:48:51;;;;;;;9.10;4.90;;;;;;;-146.27;100.00;81894.06;5086287;28;20387;-71
2023/07/01 09:51:17;;;;;;;12.48;5.53;;;;;;;-146.27;100.00;81849.88;5098176;28;20032;-71
2023/07/01 09:53:42;;;;;;;13.45;6.18;;;;;;;-146.27;100.00;81880.00;5081820;28;20369;-70
2023/07/01 09:56:08;;;;;;;17.13;5.80;;;;;;;-146.27;100.00;81855.91;5093803;28;20449;-70
2023/07/01 09:58:34;;;;;;;8.23;5.32;;;;;;;-146.27;100.00;81910.13;5086870;28;20028;-71
2023/07/01 10:01:01;;;;;;;15.95;6.47;;;;;;;-146.27;100.00;81898.09;5082009;28;20307;-70
2023/07/01 10:03:27;;;;;;;13.57;6.85;;;;;;;-146.27;100.00;81861.94;5085798;28;20032;-72
2023/07/01 10:05:53;;;;;;;11.95;5.30;;;;;;;-146.27;100.00;81853.91;5081623;28;20032;-68
2023/07/01 10:08:19;;;;;;;13.48;5.55;;;;;;;-146.27;100.00;81849.88;5086527;28;20146;-72
2023/07/01 10:10:52;;;;;;;9.25;5.03;;;;;;;-146.27;100.00;81894.06;5086718;28;20130;-72
2023/07/01 10:13:19;;;;;;;9.38;5.10;;;;;;;-146.27;100.00;81865.94;5085622;28;20471;-72
2023/07/01 10:15:44;;;;;;;10.07;6.15;;;;;;;-146.27;100.00;81888.03;5088112;28;20024;-72
2023/07/01 10:18:21;;;;;;;12.18;5.68;;;;;;;-146.27;100.00;81821.75;5081300;28;20028;-72
2023/07/01 10:20:46;;;;;;;13.80;6.07;;;;;;;-146.27;100.00;81882.00;5080308;28;20047;-71
2023/07/01 10:23:12;;;;;;;12.63;5.53;;;;;;;-146.27;100.00;81894.06;5070811;28;20028;-71
2023/07/01 10:25:38;;;;;;;14.40;6.10;;;;;;;-146.27;100.00;81898.09;5068743;28;20029;-71
2023/07/01 10:28:11;;;;;;;10.65;5.32;;;;;;;-146.27;100.00;81878.00;5061043;28;20029;-72
2023/07/01 10:30:43;;;;;;;12.88;5.50;;;;;;;-146.27;100.00;81803.69;5067827;28;20082;-71
2023/07/01 10:33:30;;;;;;;15.07;6.30;;;;;;;-146.27;100.00;81835.81;5071870;28;20033;-71
2023/07/01 10:36:22;;;;;;;12.20;5.40;;;;;;;-146.27;100.00;81878.00;5063495;28;20017;-71
2023/07/01 10:38:48;;;;;;;12.88;5.47;;;;;;;-146.27;100.00;81849.88;5088408;28;20086;-72
2023/07/01 10:41:13;;;;;;;14.02;5.97;;;;;;;-146.27;100.00;81894.06;5073940;28;20028;-70
2023/07/01 10:43:39;;;;;;;12.07;4.95;;;;;;;-146.27;100.00;81857.91;5086359;28;20109;-70
2023/07/01 10:46:24;;;;;;;15.45;5.25;;;;;;;-146.27;100.00;81811.72;5072130;28;20039;-70
2023/07/01 10:49:01;;;;;;;13.65;5.25;;;;;;;-146.27;100.00;81817.75;5084933;28;20578;-71
2023/07/01 10:51:27;;;;;;;16.15;4.80;;;;;;;-146.27;100.00;81821.75;5073826;28;20052;-72
2023/07/01 10:53:58;;;;;;;14.90;4.65;;;;;;;-146.27;100.00;81797.66;5071484;28;20056;-71
2023/07/01 10:56:24;;;;;;;12.73;4.75;;;;;;;-146.27;100.00;81813.72;5069807;28;20017;-70
2023/07/01 10:59:17;;;;;;;12.20;5.05;;;;;;;-146.27;100.00;81755.47;5054026;28;20028;-71
2023/07/01 11:01:48;;;;;;;17.42;4.93;;;;;;;-146.27;100.00;81769.53;5072780;28;20040;-72
2023/07/01 11:04:14;;;;;;;12.77;5.05;;;;;;;-146.27;100.00;81747.44;5065247;28;20140;-72
2023/07/01 11:06:50;;;;;;;10.98;4.70;;;;;;;-146.27;100.00;81685.19;5065493;28;20078;-71